Bearce, AR

4:24 PM CDT on May 28, 2015 (GMT -0500)
Mount Ida | | Change Station
CLOSE
Current Station
Airport
Location: Mount Ida,
Elevation: 702 ft
Nearby Weather Stations

Elev 702 ft 34.55 °N, 93.58 °W | Updated 13 minutes ago

Clear
Clear
68 °F
Feels Like 68 °F
N
0
Wind Variable Wind from North

Today
High -- | Low -- °F
--% Chance of Precip.
Yesterday
High -- | Low -- °F
Precip. -- in
6:04 AM 8:18 PM
Waxing Gibbous, 78% visible
Pressure 30.07 in
Visibility 10.0 miles
Clouds Few 400 ft
Dew Point 66 °F
Humidity 93%
Rainfall 0.55 in
Snow Depth Not available.
UV 7 out of 12
Pollen 4.80 out of 12
Air Quality Not available.
Flu Activity No Activity
SPECI KMWT 282111Z AUTO 00000KT 10SM FEW004 20/19 A3007 RMK AO2 T02000189

More Conditions Fewer Conditions

Pressure 30.07 in
Visibility 10.0 miles
Clouds Few 400 ft
Dew Point 66 °F
Humidity 93%
Rainfall 0.55 in
Snow Depth Not available.
UV 7 out of 12
Pollen 4.80 out of 12
Air Quality Not available.
Flu Activity No Activity
SPECI KMWT 282111Z AUTO 00000KT 10SM FEW004 20/19 A3007 RMK AO2 T02000189

More Conditions Fewer Conditions

10-Day Weather Forecast

Almanac

Astronomy

May. 28, 2015 Rise Set
Actual Time
Civil Twilight
Nautical Twilight
Astronomical Twilight
Moon
Length of Visible Light
Length of Day
Tomorrow will be .
, % of the Moon is Illuminated

Today's Extremes

State Highs State Lows

Community

WunderPhotos

Upload Photos

1,825,072 photos uploaded!

WunderBlogs® & News

Nearby

Air Quality

  Air Quality AQ Index Pollutant
Not available.

Snow Depth

Station Depth Elevation

Earthquake Activity

City Distance Mag. Time & Date
Minimum magnitude displayed is 2.5.

Coastal Water Temperatures

Place Temperature

Stations

Nearby Weather Stations

Station Location Temp. Windchill Dew Point Humidity Wind Precip. Elev Updated Type